Nearby METAR Reports

 

KFIN - Palm Coast, Florida, USA
Distance from station: ENE 9mi, 15km
Updated: Sun, 16-Jun-2019 12:50pm EDT
Mostly cloudy
Mostly cloudy
 Wind from varies
Wind: varies 7 mph , 11 km/h
Temperature: 82°F , 28°C
Heat Index: 87°F , 31°C
Dew Point: 73°F , 23°C
Humidity: 74%
Barometer: 30.08 inHg , 1018.6 hPa
Clouds: Mostly cloudy
Visibility: 7 miles , 11 km
Cloud details: Mostly cloudy 2600 ft
2019/06/16 16:50 KFIN 161650Z VRB06KT 7SM BKN026 28/23 A3008
KOMN - Ormond Beach Vor, Florida, USA
Distance from station: ESE 17mi, 27km
Updated: Sun, 16-Jun-2019 12:50pm EDT
Nearby showers, Partly cloudy
Nearby showers, Partly cloudy
 Wind from NE
Wind: NE 10 mph , 17 km/h
Temperature: 84°F , 29°C
Heat Index: 92°F , 33°C
Dew Point: 75°F , 24°C
Humidity: 74%
Barometer: 30.07 inHg , 1018.3 hPa
Summary: Nearby Showers
Clouds: Partly cloudy
Visibility: 10 miles , 16 km
Cloud details: Partly cloudy 2300 ft
2019/06/16 16:50 KOMN 161650Z 05009KT 10SM VCSH SCT023 29/24 A3007
 
KDAB - Daytona Beach, Florida, USA
Distance from station: SE 24mi, 39km
Updated: Sun, 16-Jun-2019 12:59pm EDT
Thunderstorm, Mostly cloudy
Thunderstorm, Mostly cloudy
 Wind from ENE
Wind: ENE 12 mph , 19 km/h
Temperature: 86°F , 30°C
Heat Index: 99°F , 37°C
Dew Point: 79°F , 26°C
Humidity: 79%
Barometer: 30.06 inHg , 1017.9 hPa
Summary: Thunderstorm
Clouds: Mostly cloudy
Visibility: 10 miles , 16 km
Cloud details: Partly cloudy 2400 ft
Partly cloudy 3500 ft
Partly cloudy 6000 ft
Mostly cloudy 20000 ft
2019/06/16 16:59 KDAB 161659Z 06010KT 10SM TS SCT024CB SCT035 SCT060 BKN200 30/26 A3006 RMK AO2 LTG DSNT S AND NW TSE57B59 OCNL LTGICCG SW TS SW MOV W CB W-NW MOV W CB DSNT ALQDS T03000256
KDED - Deland, Florida, USA
Distance from station: S 26mi, 41km
Updated: Sun, 16-Jun-2019 12:55pm EDT
Mostly cloudy
Mostly cloudy
 Wind from ENE
Wind: ENE 9 mph , 15 km/h
Temperature: 84°F , 29°C
Heat Index: 92°F , 33°C
Dew Point: 75°F , 24°C
Humidity: 74%
Barometer: 30.05 inHg , 1017.6 hPa
Clouds: Mostly cloudy
Visibility: 10 miles , 16 km
Cloud details: Partly cloudy 3600 ft
Mostly cloudy 4500 ft
Mostly cloudy 6000 ft
2019/06/16 16:55 KDED 161655Z AUTO 06008KT 10SM SCT036 BKN045 BKN060 29/24 A3005 RMK AO2 LTG DSNT ALQDS
 
KEVB - New Smyrna Beach, Florida, USA
Distance from station: SE 36mi, 58km
Updated: Sun, 16-Jun-2019 12:47pm EDT
Partly cloudy
Partly cloudy
 Wind from E
Wind: E 8 mph , 13 km/h
Temperature: 86°F , 30°C
Heat Index: 95°F , 35°C
Dew Point: 75°F , 24°C
Humidity: 70%
Barometer: 30.07 inHg , 1018.3 hPa
Clouds: Partly cloudy
Visibility: 10 miles , 16 km
Cloud details: Partly cloudy 3000 ft
2019/06/16 16:47 KEVB 161647Z 09007KT 10SM SCT030 30/24 A3007
KSGJ - St Augustine, Florida, USA
Distance from station: N 37mi, 60km
Updated: Sun, 16-Jun-2019 1:03pm EDT
Nearby thunderstorm, Few clouds
Nearby thunderstorm, Few clouds
 Wind from E
Wind: E 13 mph , 20 km/h
Temperature: 84°F , 29°C
Heat Index: 92°F , 33°C
Dew Point: 75°F , 24°C
Humidity: 74%
Barometer: 30.09 inHg , 1019 hPa
Summary: Nearby Thunderstorm
Clouds: Few Clouds
Visibility: 10 miles , 16 km
Cloud details: Few Clouds 1600 ft
2019/06/16 17:03 KSGJ 161703Z 09011KT 10SM VCTS FEW016 29/24 A3009 RMK AO2 LTG DSNT W
 
KSFB - Sanford/Orlando, Florida, USA
Distance from station: S 47mi, 75km
Updated: Sun, 16-Jun-2019 12:53pm EDT
Thunderstorm, Mostly cloudy
Thunderstorm, Mostly cloudy
 Wind from ENE
Wind: ENE 6 mph , 9 km/h
Temperature: 88°F , 31°C
Heat Index: 95°F , 35°C
Dew Point: 72°F , 22°C
Humidity: 59%
Barometer: 30.05 inHg , 1017.6 hPa
Summary: Thunderstorm
Clouds: Mostly cloudy
Visibility: 10 miles , 16 km
Cloud details: Few Clouds 4400 ft
Mostly cloudy 9000 ft
2019/06/16 16:53 KSFB 161653Z 07005KT 10SM TS FEW044 BKN090 31/22 A3005 RMK AO2 LTG DSNT SE TSB48 SLP174 T03110222
KVVG - The Villages, Florida, USA
Distance from station: SW 50mi, 80km
Updated: Wed, 14-Feb-2018 2:10pm EST
NOT Current

 Wind from calm
Wind: Calm
Temperature: 73°F , 23°C
Dew Point: 66°F , 19°C
Humidity: 78%
Barometer: 30.29 inHg , 1025.7 hPa
Visibility: 10 miles , 16 km
2018/02/14 19:10 KVVG 141910Z AUTO 00000KT 10SM 23/19 A3029 RMK A01